createdAt,value
2019-03-27T00:01:47.922Z,5.37
2019-03-27T00:04:15.233Z,4.77
2019-03-27T00:06:42.516Z,6.27
2019-03-27T00:09:10.161Z,7.30
2019-03-27T00:11:37.541Z,6.53
2019-03-27T00:14:04.825Z,5.50
2019-03-27T00:16:32.081Z,6.07
2019-03-27T00:18:59.398Z,9.97
2019-03-27T00:21:26.763Z,4.10
2019-03-27T00:23:54.122Z,4.63
2019-03-27T00:26:21.523Z,5.07
2019-03-27T00:28:49.147Z,8.77
2019-03-27T00:31:16.304Z,6.67
2019-03-27T00:36:17.775Z,8.57
2019-03-27T00:38:45.491Z,8.77
2019-03-27T00:41:12.763Z,7.70
2019-03-27T00:43:40.087Z,9.07
2019-03-27T00:46:07.462Z,9.50
2019-03-27T00:48:35.011Z,8.80
2019-03-27T00:51:02.287Z,9.00
2019-03-27T00:53:30.025Z,9.00
2019-03-27T00:55:57.282Z,8.33
2019-03-27T00:58:24.549Z,9.10
2019-03-27T01:01:12.226Z,8.70
2019-03-27T01:03:39.694Z,7.20
2019-03-27T01:06:07.056Z,9.23
2019-03-27T01:08:34.508Z,6.83
2019-03-27T01:11:01.861Z,7.13
2019-03-27T01:13:29.402Z,6.73
2019-03-27T01:15:57.113Z,8.90
2019-03-27T01:18:24.756Z,8.63
2019-03-27T01:20:52.012Z,5.73
2019-03-27T01:23:19.844Z,12.83
2019-03-27T01:25:47.143Z,9.80
2019-03-27T01:28:14.400Z,13.03
2019-03-27T01:30:42.142Z,9.83
2019-03-27T01:33:09.682Z,8.03
2019-03-27T01:35:36.936Z,8.63
2019-03-27T01:38:04.303Z,9.13
2019-03-27T01:40:31.568Z,9.60
2019-03-27T01:42:59.374Z,8.60
2019-03-27T01:45:52.196Z,10.17
2019-03-27T01:48:08.413Z,8.37
2019-03-27T01:50:35.660Z,9.93
2019-03-27T01:53:03.056Z,8.17
2019-03-27T01:55:31.047Z,8.33
2019-03-27T01:57:58.327Z,8.10
2019-03-27T02:00:25.713Z,7.83
2019-03-27T02:02:53.318Z,8.10
2019-03-27T02:05:21.351Z,11.27
2019-03-27T02:07:48.684Z,9.80
2019-03-27T02:10:16.111Z,9.07
2019-03-27T02:12:43.740Z,8.47
2019-03-27T02:15:32.251Z,7.93
2019-03-27T02:18:00.003Z,9.43
2019-03-27T02:20:27.376Z,8.70
2019-03-27T02:22:54.939Z,9.53
2019-03-27T02:25:22.187Z,7.80
2019-03-27T02:27:49.450Z,8.40
2019-03-27T02:30:17.161Z,9.43
2019-03-27T02:32:44.382Z,5.77
2019-03-27T02:35:11.632Z,7.63
2019-03-27T02:37:38.950Z,7.57
2019-03-27T02:40:06.325Z,8.37
2019-03-27T02:42:34.014Z,6.07
2019-03-27T02:45:01.404Z,5.97
2019-03-27T02:47:28.703Z,6.97
2019-03-27T02:49:56.339Z,6.90
2019-03-27T02:52:23.653Z,9.50
2019-03-27T02:54:51.016Z,8.30
2019-03-27T02:57:18.767Z,9.03
2019-03-27T02:59:46.262Z,9.17
2019-03-27T03:02:13.898Z,11.13
2019-03-27T03:05:22.052Z,11.27
2019-03-27T03:07:49.730Z,10.67
2019-03-27T03:10:17.401Z,12.10
2019-03-27T03:12:44.713Z,13.23
2019-03-27T03:15:53.104Z,12.70
2019-03-27T03:18:21.000Z,11.50
2019-03-27T03:20:48.367Z,11.87
2019-03-27T03:23:15.625Z,13.27
2019-03-27T03:25:43.368Z,11.40
2019-03-27T03:28:10.730Z,13.83
2019-03-27T03:30:38.106Z,15.23
2019-03-27T03:33:05.524Z,14.17
2019-03-27T03:35:32.874Z,16.20
2019-03-27T03:38:00.427Z,15.47
2019-03-27T03:40:27.818Z,16.30
2019-03-27T03:42:55.066Z,17.07
2019-03-27T03:45:22.329Z,15.90
2019-03-27T03:47:50.118Z,16.70
2019-03-27T03:50:37.545Z,15.37
2019-03-27T03:53:45.697Z,15.63
2019-03-27T03:56:53.723Z,14.47
2019-03-27T04:00:01.875Z,19.93
2019-03-27T04:03:09.915Z,17.80
2019-03-27T04:05:37.381Z,19.60
2019-03-27T04:08:04.774Z,19.07
2019-03-27T04:10:32.039Z,22.93
2019-03-27T04:12:59.488Z,16.17
2019-03-27T04:15:26.874Z,19.70
2019-03-27T04:17:54.129Z,20.40
2019-03-27T04:20:21.512Z,19.97
2019-03-27T04:22:48.780Z,21.63
2019-03-27T04:28:10.920Z,18.37
2019-03-27T04:30:38.212Z,19.77
2019-03-27T04:33:05.784Z,18.60
2019-03-27T04:35:33.097Z,21.03
2019-03-27T04:38:00.732Z,17.70
2019-03-27T04:40:28.000Z,20.30
2019-03-27T04:42:55.552Z,16.60
2019-03-27T04:45:22.805Z,17.00
2019-03-27T04:47:50.066Z,18.83
2019-03-27T04:50:29.762Z,18.67
2019-03-27T04:52:57.589Z,18.67
2019-03-27T04:55:24.955Z,19.20
2019-03-27T04:57:52.331Z,19.73
2019-03-27T05:00:20.083Z,20.17
2019-03-27T05:02:47.953Z,19.53
2019-03-27T05:05:15.658Z,19.83
2019-03-27T05:07:42.932Z,18.00
2019-03-27T05:10:10.523Z,17.97
2019-03-27T05:12:38.802Z,15.87
2019-03-27T05:15:07.358Z,16.97
2019-03-27T05:17:45.314Z,16.87
2019-03-27T05:20:05.028Z,18.37
2019-03-27T05:22:32.512Z,19.37
2019-03-27T05:25:00.393Z,15.13
2019-03-27T05:27:27.897Z,15.07
2019-03-27T05:29:55.197Z,15.77
2019-03-27T05:32:22.751Z,15.23
2019-03-27T05:34:50.431Z,15.87
2019-03-27T05:37:17.703Z,14.07
2019-03-27T05:39:44.962Z,15.57
2019-03-27T05:42:12.389Z,19.50
2019-03-27T05:44:39.717Z,17.80
2019-03-27T05:47:07.363Z,20.80
2019-03-27T05:49:34.777Z,17.33
2019-03-27T05:52:02.102Z,20.17
2019-03-27T05:54:29.753Z,21.03
2019-03-27T05:56:57.433Z,19.23
2019-03-27T05:59:25.180Z,19.53
2019-03-27T06:01:52.638Z,24.87
2019-03-27T06:04:19.967Z,22.10
2019-03-27T06:06:47.519Z,19.83
2019-03-27T06:09:14.788Z,19.23
2019-03-27T06:11:42.640Z,20.37
2019-03-27T06:14:10.407Z,25.97
2019-03-27T06:16:37.672Z,20.37
2019-03-27T06:19:05.161Z,21.63
2019-03-27T06:21:32.734Z,21.37
2019-03-27T06:24:00.116Z,21.60
2019-03-27T06:27:24.993Z,24.17
2019-03-27T06:30:04.132Z,20.67
2019-03-27T06:32:32.216Z,17.30
2019-03-27T06:35:01.401Z,23.73
2019-03-27T06:37:29.041Z,24.10
2019-03-27T06:39:56.583Z,23.50
2019-03-27T06:42:24.473Z,22.67
2019-03-27T06:44:52.849Z,24.97
2019-03-27T06:47:20.488Z,25.10
2019-03-27T06:49:47.748Z,27.27
2019-03-27T06:52:15.224Z,30.20
2019-03-27T06:54:42.526Z,28.33
2019-03-27T06:57:09.791Z,28.33
2019-03-27T06:59:37.382Z,25.60
2019-03-27T07:02:04.815Z,26.83
2019-03-27T07:04:32.475Z,28.23
2019-03-27T07:06:59.841Z,31.20
2019-03-27T07:09:27.161Z,25.30
2019-03-27T07:11:54.430Z,23.50
2019-03-27T07:14:21.705Z,28.50
2019-03-27T07:17:09.014Z,27.07
2019-03-27T07:19:36.281Z,21.77
2019-03-27T07:22:03.556Z,26.67
2019-03-27T07:24:31.115Z,23.43
2019-03-27T07:26:58.380Z,21.83
2019-03-27T07:29:45.175Z,21.70
2019-03-27T07:32:12.726Z,19.80
2019-03-27T07:34:40.182Z,18.40
2019-03-27T07:37:07.653Z,19.43
2019-03-27T07:39:35.567Z,22.00
2019-03-27T07:42:03.640Z,16.27
2019-03-27T07:44:30.969Z,18.60
2019-03-27T07:46:58.243Z,17.23
2019-03-27T07:49:25.614Z,19.93
2019-03-27T07:51:53.106Z,19.60
2019-03-27T07:54:20.820Z,16.90
2019-03-27T07:56:48.090Z,14.43
2019-03-27T07:59:15.515Z,14.10
2019-03-27T08:01:43.058Z,17.13
2019-03-27T08:04:10.328Z,18.97
2019-03-27T08:06:37.714Z,14.30
2019-03-27T08:09:06.890Z,13.33
2019-03-27T08:11:34.537Z,11.60
2019-03-27T08:14:02.434Z,11.00
2019-03-27T08:16:30.492Z,11.80
2019-03-27T08:19:07.406Z,14.90
2019-03-27T08:21:30.984Z,12.33
2019-03-27T08:23:57.254Z,16.80
2019-03-27T08:26:24.821Z,11.87
2019-03-27T08:28:52.649Z,17.07
2019-03-27T08:31:20.300Z,11.37
2019-03-27T08:33:47.563Z,14.27
2019-03-27T08:36:15.274Z,13.70
2019-03-27T08:38:42.867Z,11.77
2019-03-27T08:41:10.302Z,11.70
2019-03-27T08:43:37.671Z,12.77
2019-03-27T08:46:04.963Z,13.07
2019-03-27T08:48:32.265Z,17.33
2019-03-27T08:50:59.682Z,10.83
2019-03-27T08:53:27.436Z,10.40
2019-03-27T08:56:06.958Z,9.20
2019-03-27T08:58:34.338Z,13.80
2019-03-27T09:01:01.713Z,12.17
2019-03-27T09:03:29.031Z,13.27
2019-03-27T09:05:56.758Z,13.43
2019-03-27T09:08:24.625Z,13.03
2019-03-27T09:10:52.420Z,10.80
2019-03-27T09:13:20.064Z,11.90
2019-03-27T09:15:47.417Z,8.53
2019-03-27T09:18:16.872Z,11.33
2019-03-27T09:20:44.494Z,8.77
2019-03-27T09:23:14.091Z,11.50
2019-03-27T09:25:41.514Z,7.33
2019-03-27T09:28:09.480Z,9.60
2019-03-27T09:30:36.985Z,13.07
2019-03-27T09:33:04.424Z,10.87
2019-03-27T09:35:31.814Z,9.03
2019-03-27T09:37:59.087Z,11.73
2019-03-27T09:40:26.394Z,12.10
2019-03-27T09:42:53.927Z,10.97
2019-03-27T09:45:21.222Z,9.27
2019-03-27T09:47:48.533Z,10.67
2019-03-27T09:50:15.797Z,11.57
2019-03-27T09:52:43.070Z,8.33
2019-03-27T09:58:06.135Z,7.57
2019-03-27T10:00:53.409Z,12.40
2019-03-27T10:03:20.724Z,10.97
2019-03-27T10:05:48.010Z,9.33
2019-03-27T10:08:15.270Z,11.90
2019-03-27T10:10:42.703Z,10.63
2019-03-27T10:13:09.957Z,9.90
2019-03-27T10:15:37.528Z,10.60
2019-03-27T10:18:05.126Z,11.13
2019-03-27T10:20:32.496Z,9.87
2019-03-27T10:22:59.758Z,11.83
2019-03-27T10:25:27.457Z,10.60
2019-03-27T10:27:54.834Z,10.20
2019-03-27T10:30:22.106Z,9.17
2019-03-27T10:32:49.483Z,8.67
2019-03-27T10:35:16.801Z,8.43
2019-03-27T10:37:44.151Z,7.27
2019-03-27T10:40:11.593Z,8.30
2019-03-27T10:42:38.953Z,9.97
2019-03-27T10:45:27.767Z,10.87
2019-03-27T10:47:55.610Z,9.43
2019-03-27T10:50:23.209Z,11.33
2019-03-27T10:52:50.633Z,9.70
2019-03-27T10:55:17.897Z,13.67
2019-03-27T10:57:45.257Z,7.60
2019-03-27T11:00:12.850Z,11.40
2019-03-27T11:02:40.353Z,10.33
2019-03-27T11:05:48.584Z,10.80
2019-03-27T11:08:16.194Z,12.03
2019-03-27T11:10:43.459Z,10.67
2019-03-27T11:13:11.627Z,10.23
2019-03-27T11:15:38.922Z,11.40
2019-03-27T11:18:06.194Z,13.07
2019-03-27T11:20:33.607Z,10.53
2019-03-27T11:23:01.582Z,11.10
2019-03-27T11:25:28.854Z,11.33
2019-03-27T11:27:56.159Z,10.57
2019-03-27T11:31:08.488Z,12.90
2019-03-27T11:33:36.274Z,12.90
2019-03-27T11:36:03.960Z,10.83
2019-03-27T11:38:31.220Z,11.03
2019-03-27T11:40:58.701Z,8.60
2019-03-27T11:43:26.387Z,9.47
2019-03-27T11:45:53.696Z,16.73
2019-03-27T11:48:21.289Z,11.77
2019-03-27T11:50:48.929Z,12.17
2019-03-27T11:53:16.321Z,10.67
2019-03-27T11:55:43.636Z,8.67
2019-03-27T11:58:14.705Z,11.30
2019-03-27T12:00:53.834Z,10.77
2019-03-27T12:03:11.195Z,12.60
2019-03-27T12:05:38.445Z,8.87
2019-03-27T12:08:05.710Z,9.10
2019-03-27T12:10:34.013Z,11.83
2019-03-27T12:13:01.568Z,8.97
2019-03-27T12:15:48.237Z,14.07
2019-03-27T12:18:37.047Z,9.10
2019-03-27T12:21:04.541Z,11.30
2019-03-27T12:23:31.835Z,6.53
2019-03-27T12:25:59.598Z,9.20
2019-03-27T12:28:26.917Z,11.60
2019-03-27T12:30:54.307Z,10.53
2019-03-27T12:33:21.811Z,13.13
2019-03-27T12:35:49.116Z,9.17
2019-03-27T12:38:16.518Z,9.37
2019-03-27T12:40:44.116Z,8.40
2019-03-27T12:43:11.799Z,8.60
2019-03-27T12:45:39.285Z,7.70
2019-03-27T12:48:06.658Z,14.27
2019-03-27T12:50:34.444Z,9.23
2019-03-27T12:53:02.062Z,7.30
2019-03-27T12:55:29.443Z,9.87
2019-03-27T12:57:56.714Z,8.20
2019-03-27T13:00:24.170Z,6.43
2019-03-27T13:03:09.862Z,7.00
2019-03-27T13:05:37.404Z,9.17
2019-03-27T13:08:04.674Z,5.20
2019-03-27T13:10:32.104Z,5.47
2019-03-27T13:12:59.727Z,7.93
2019-03-27T13:15:27.102Z,6.50
2019-03-27T13:17:54.417Z,8.03
2019-03-27T13:20:21.812Z,6.07
2019-03-27T13:22:49.179Z,7.87
2019-03-27T13:25:16.589Z,8.30
2019-03-27T13:27:47.379Z,6.43
2019-03-27T13:30:54.354Z,7.87
2019-03-27T13:33:21.619Z,5.90
2019-03-27T13:35:49.181Z,7.57
2019-03-27T13:38:16.881Z,6.47
2019-03-27T13:40:44.496Z,6.63
2019-03-27T13:43:11.871Z,6.87
2019-03-27T13:45:39.481Z,8.27
2019-03-27T13:48:06.855Z,5.57
2019-03-27T13:50:34.281Z,6.30
2019-03-27T13:53:02.053Z,8.33
2019-03-27T13:55:29.679Z,5.50
2019-03-27T13:57:57.235Z,5.67
2019-03-27T14:00:24.543Z,8.60
2019-03-27T14:02:51.916Z,7.00
2019-03-27T14:05:19.503Z,5.03
2019-03-27T14:07:47.007Z,4.73
2019-03-27T14:10:15.175Z,5.33
2019-03-27T14:12:42.574Z,6.07
2019-03-27T14:15:10.006Z,7.93
2019-03-27T14:17:37.178Z,4.17
2019-03-27T14:20:46.239Z,6.63
2019-03-27T14:23:13.783Z,6.07
2019-03-27T14:25:41.068Z,6.90
2019-03-27T14:28:08.686Z,5.30
2019-03-27T14:30:55.479Z,5.63
2019-03-27T14:33:23.211Z,7.47
2019-03-27T14:36:09.886Z,6.53
2019-03-27T14:38:37.243Z,6.67
2019-03-27T14:41:04.873Z,8.13
2019-03-27T14:43:32.830Z,8.10
2019-03-27T14:46:00.358Z,5.63
2019-03-27T14:48:27.933Z,4.63
2019-03-27T14:50:55.516Z,5.93
2019-03-27T14:53:22.938Z,5.23
2019-03-27T14:55:50.308Z,4.93
2019-03-27T14:58:17.855Z,7.00
2019-03-27T15:00:45.305Z,7.37
2019-03-27T15:03:12.570Z,7.80
2019-03-27T15:05:39.867Z,7.33
2019-03-27T15:08:07.319Z,10.60
2019-03-27T15:10:34.581Z,11.30
2019-03-27T15:13:01.854Z,6.37
2019-03-27T15:15:29.239Z,8.57
2019-03-27T15:17:56.640Z,5.73
2019-03-27T15:20:23.997Z,6.07
2019-03-27T15:22:51.314Z,7.07
2019-03-27T15:25:18.587Z,7.40
2019-03-27T15:27:46.398Z,6.67
2019-03-27T15:30:14.087Z,8.17
2019-03-27T15:32:41.760Z,9.07
2019-03-27T15:35:49.851Z,7.20
2019-03-27T15:38:17.846Z,7.97
2019-03-27T15:41:26.006Z,6.47
2019-03-27T15:43:53.557Z,6.67
2019-03-27T15:46:20.823Z,6.03
2019-03-27T15:49:07.494Z,7.93
2019-03-27T15:51:34.856Z,9.17
2019-03-27T15:54:02.109Z,7.07
2019-03-27T15:56:29.870Z,4.80
2019-03-27T15:59:16.390Z,6.47
2019-03-27T16:01:43.978Z,7.33
2019-03-27T16:04:30.865Z,5.83
2019-03-27T16:06:58.787Z,4.20
2019-03-27T16:09:27.180Z,6.30
2019-03-27T16:12:53.284Z,7.57
2019-03-27T16:15:20.761Z,7.40
2019-03-27T16:17:48.717Z,5.07
2019-03-27T16:20:16.138Z,6.53
2019-03-27T16:22:50.713Z,6.67
2019-03-27T16:25:32.490Z,6.63
2019-03-27T16:27:59.861Z,5.70
2019-03-27T16:30:55.584Z,5.47
2019-03-27T16:33:23.723Z,7.63
2019-03-27T16:35:51.618Z,7.07
2019-03-27T16:38:19.408Z,5.87
2019-03-27T16:40:48.015Z,7.20
2019-03-27T16:43:35.156Z,8.03
2019-03-27T16:46:21.773Z,7.13
2019-03-27T16:48:49.295Z,7.03
2019-03-27T16:51:16.889Z,6.20
2019-03-27T16:53:45.484Z,6.43
2019-03-27T16:56:12.906Z,7.33
2019-03-27T16:58:40.270Z,6.03
2019-03-27T17:01:27.425Z,6.33
2019-03-27T17:04:14.103Z,9.23
2019-03-27T17:06:41.485Z,6.47
2019-03-27T17:09:28.622Z,5.60
2019-03-27T17:11:56.704Z,9.37
2019-03-27T17:14:24.870Z,8.57
2019-03-27T17:17:12.450Z,10.73
2019-03-27T17:19:40.353Z,10.17
2019-03-27T17:22:18.787Z,9.77
2019-03-27T17:24:37.646Z,10.07
2019-03-27T17:27:04.942Z,9.93
2019-03-27T17:29:32.966Z,9.53
2019-03-27T17:32:00.536Z,13.87
2019-03-27T17:34:28.211Z,10.07
2019-03-27T17:36:55.828Z,9.83
2019-03-27T17:39:23.651Z,11.93
2019-03-27T17:41:50.939Z,9.93
2019-03-27T17:44:18.719Z,9.07
2019-03-27T17:46:49.918Z,16.50
2019-03-27T17:49:35.171Z,9.20
2019-03-27T17:52:02.687Z,9.83
2019-03-27T17:54:30.830Z,11.43
2019-03-27T17:57:17.835Z,9.87
2019-03-27T17:59:45.864Z,10.50
2019-03-27T18:02:13.604Z,10.33
2019-03-27T18:04:41.471Z,11.63
2019-03-27T18:07:28.584Z,11.47
2019-03-27T18:09:56.600Z,9.30
2019-03-27T18:12:24.259Z,9.77
2019-03-27T18:14:52.080Z,8.73
2019-03-27T18:17:19.764Z,11.03
2019-03-27T18:19:47.423Z,10.00
2019-03-27T18:22:15.591Z,8.03
2019-03-27T18:24:43.496Z,9.23
2019-03-27T18:27:11.319Z,9.47
2019-03-27T18:29:38.957Z,10.43
2019-03-27T18:32:07.018Z,9.97
2019-03-27T18:34:34.619Z,8.70
2019-03-27T18:37:02.239Z,9.20
2019-03-27T18:39:30.308Z,9.33
2019-03-27T18:41:58.165Z,8.80
2019-03-27T18:44:25.827Z,8.17
2019-03-27T18:46:53.542Z,11.87
2019-03-27T18:49:22.045Z,9.27
2019-03-27T18:51:50.321Z,10.13
2019-03-27T18:54:18.043Z,10.87
2019-03-27T18:56:45.664Z,11.13
2019-03-27T18:59:13.285Z,9.10
2019-03-27T19:01:40.981Z,9.63
2019-03-27T19:04:09.012Z,8.13
2019-03-27T19:06:38.016Z,8.47
2019-03-27T19:09:08.100Z,9.03
2019-03-27T19:11:55.008Z,10.60
2019-03-27T19:14:23.006Z,9.87
2019-03-27T19:16:50.454Z,7.17
2019-03-27T19:19:17.736Z,7.20
2019-03-27T19:21:45.051Z,8.47
2019-03-27T19:24:16.417Z,6.00
2019-03-27T19:26:41.972Z,7.73
2019-03-27T19:29:09.319Z,7.40
2019-03-27T19:31:36.683Z,6.27
2019-03-27T19:34:04.330Z,8.20
2019-03-27T19:36:31.846Z,8.77
2019-03-27T19:38:59.299Z,9.27
2019-03-27T19:41:26.702Z,5.57
2019-03-27T19:43:54.279Z,9.73
2019-03-27T19:46:21.862Z,8.00
2019-03-27T19:48:49.818Z,8.37
2019-03-27T19:51:17.899Z,7.20
2019-03-27T19:53:45.182Z,8.57
2019-03-27T19:56:12.465Z,7.73
2019-03-27T19:58:39.888Z,10.00
2019-03-27T20:01:07.340Z,6.73
2019-03-27T20:03:34.958Z,7.23
2019-03-27T20:06:02.612Z,8.43
2019-03-27T20:08:29.978Z,6.40
2019-03-27T20:10:57.234Z,9.60
2019-03-27T20:13:24.551Z,7.13
2019-03-27T20:15:52.108Z,7.20
2019-03-27T20:18:19.465Z,11.73
2019-03-27T20:20:47.152Z,7.47
2019-03-27T20:23:15.621Z,7.47
2019-03-27T20:25:44.153Z,7.90
2019-03-27T20:28:12.051Z,8.17
2019-03-27T20:30:39.304Z,7.93
2019-03-27T20:33:06.984Z,8.83
2019-03-27T20:35:34.528Z,8.40
2019-03-27T20:38:02.113Z,9.13
2019-03-27T20:43:18.636Z,9.97
2019-03-27T20:45:46.174Z,8.90
2019-03-27T20:48:14.185Z,10.97
2019-03-27T20:50:41.825Z,10.87
2019-03-27T20:53:09.363Z,9.67
2019-03-27T20:55:36.737Z,9.97
2019-03-27T20:58:04.302Z,9.83
2019-03-27T21:00:31.577Z,9.23
2019-03-27T21:02:58.856Z,10.10
2019-03-27T21:05:26.592Z,9.43
2019-03-27T21:07:53.969Z,10.10
2019-03-27T21:10:21.273Z,12.80
2019-03-27T21:12:48.577Z,12.40
2019-03-27T21:15:15.851Z,10.97
2019-03-27T21:17:43.404Z,13.17
2019-03-27T21:20:10.733Z,13.97
2019-03-27T21:22:38.051Z,13.73
2019-03-27T21:25:09.240Z,15.30
2019-03-27T21:27:35.229Z,13.67
2019-03-27T21:30:02.627Z,14.37
2019-03-27T21:32:29.921Z,17.60
2019-03-27T21:34:57.352Z,14.67
2019-03-27T21:37:24.707Z,18.67
2019-03-27T21:39:52.139Z,16.93
2019-03-27T21:42:19.492Z,18.37
2019-03-27T21:44:46.767Z,18.97
2019-03-27T21:47:14.339Z,17.40
2019-03-27T21:49:41.791Z,18.17
2019-03-27T21:52:09.348Z,15.67
2019-03-27T21:54:36.743Z,18.53
2019-03-27T21:57:04.450Z,16.43
2019-03-27T21:59:31.725Z,16.80
2019-03-27T22:01:58.988Z,16.87
2019-03-27T22:04:26.308Z,20.63
2019-03-27T22:06:53.738Z,18.60
2019-03-27T22:09:21.017Z,15.73
2019-03-27T22:11:48.576Z,19.17
2019-03-27T22:14:15.840Z,17.27
2019-03-27T22:16:43.345Z,19.33
2019-03-27T22:19:10.679Z,18.47
2019-03-27T22:21:38.694Z,22.20
2019-03-27T22:24:25.470Z,19.10
2019-03-27T22:26:52.731Z,21.67
2019-03-27T22:29:20.099Z,25.00
2019-03-27T22:31:47.436Z,23.47
2019-03-27T22:34:14.799Z,22.67
2019-03-27T22:36:42.095Z,26.07
2019-03-27T22:39:09.430Z,25.67
2019-03-27T22:41:36.822Z,26.20
2019-03-27T22:44:04.210Z,26.90
2019-03-27T22:46:31.694Z,24.23
2019-03-27T22:48:59.001Z,26.10
2019-03-27T22:51:26.293Z,25.40
2019-03-27T22:53:53.764Z,25.57
2019-03-27T22:56:21.229Z,24.97
2019-03-27T22:58:48.652Z,26.57
2019-03-27T23:01:16.381Z,23.70
2019-03-27T23:03:43.642Z,23.43
2019-03-27T23:06:11.302Z,27.67
2019-03-27T23:08:39.486Z,24.03
2019-03-27T23:11:06.885Z,25.40
2019-03-27T23:13:34.159Z,24.67
2019-03-27T23:16:01.488Z,25.70
2019-03-27T23:18:28.772Z,26.40
2019-03-27T23:20:56.152Z,24.57
2019-03-27T23:23:23.835Z,22.03
2019-03-27T23:26:02.553Z,22.70
2019-03-27T23:28:20.936Z,22.27
2019-03-27T23:30:48.263Z,21.23
2019-03-27T23:33:15.647Z,21.50
2019-03-27T23:35:44.095Z,19.93
2019-03-27T23:38:12.924Z,22.10
2019-03-27T23:40:40.705Z,22.17
2019-03-27T23:43:08.631Z,23.20
2019-03-27T23:45:36.003Z,21.67
2019-03-27T23:48:03.500Z,21.80
2019-03-27T23:50:31.079Z,21.20
2019-03-27T23:52:59.071Z,23.13
2019-03-27T23:55:26.341Z,21.60
2019-03-27T23:57:53.734Z,21.70
